• Join FlightAware (Why Join?)
  • Login
  • US Flag 
03:42PM EDT


 

Airport Tracker/Info


-or-


 

Live Flight TrackerFlight Track Log ✈ THY2453 ✈ 22-Apr-2013 ✈ LTAF / ADA - LTBA / IST

Flight Track Log - Related Links

Times and Time Zones

All times are in EDT time to prevent confusion due to time zone crossing. See the THY2453 flight status page for this flight to view local times or setup timezone preferences in your user account.

Time Position Orientation Groundspeed Altitude Reporting Facility
EDT Latitude Longitude Course Direction KTS MPH feet Rate Location/Type
11:58PM 37.5312 34.4658 311° West  Level Estimated
11:59PM 37.5919 34.3745 310° West  Level Estimated
12:00AM 37.6525 34.2831 310° West  Level Estimated
12:01AM 37.7130 34.1916 310° West  Level Estimated
12:02AM 37.7734 34.0999 310° West  Level Estimated
12:03AM 37.8338 34.0080 310° West  Level Estimated
12:04AM 37.8941 33.9160 310° West  Level Estimated
12:05AM 37.9543 33.8239 310° West  Level Estimated
12:06AM 38.0145 33.7316 310° West  Level Estimated
12:07AM 38.0746 33.6391 310° West  Level Estimated
12:08AM 38.1346 33.5465 310° West  Level Estimated
12:09AM 38.1945 33.4538 309° West  Level Estimated
12:10AM 38.2544 33.3609 309° West  Level Estimated
12:11AM 38.3142 33.2678 309° West  Level Estimated
12:12AM 38.3739 33.1746 309° West  Level Estimated
12:13AM 38.4336 33.0812 309° West  Level Estimated
12:14AM 38.4931 32.9877 309° West  Level Estimated
12:15AM 38.5526 32.8940 309° West  Level Estimated
12:16AM 38.6120 32.8002 309° West  Level Estimated
12:17AM 38.6714 32.7062 309° West  Level Estimated
12:18AM 38.7307 32.6121 309° West  Level Estimated
12:19AM 38.7899 32.5178 309° West  Level Estimated
12:20AM 38.8490 32.4233 309° West  Level Estimated
12:21AM 38.9080 32.3287 309° West  Level Estimated
12:22AM 38.9670 32.2339 309° West  Level Estimated
12:23AM 39.0259 32.1390 309° West  Level Estimated
12:24AM 39.0847 32.0439 309° West  Level Estimated
12:25AM 39.1435 31.9487 309° West  Level Estimated
12:26AM 39.2021 31.8533 308° West  Level Estimated
12:27AM 39.2607 31.7577 308° West  Level Estimated
12:28AM 39.3192 31.6620 308° West  Level Estimated
12:29AM 39.3776 31.5661 308° West  Level Estimated
12:30AM 39.4360 31.4701 308° West  Level Estimated
12:31AM 39.4942 31.3738 308° West  Level Estimated
12:32AM 39.5524 31.2775 308° West  Level Estimated
12:33AM 39.6105 31.1809 308° West  Level Estimated
12:34AM 39.6686 31.0842 308° West  Level Estimated
12:35AM 39.7265 30.9874 308° West  Level Estimated
12:36AM 39.7844 30.8904 308° West  Level Estimated
12:37AM 39.8422 30.7932 308° West  Level Estimated
12:38AM 39.8999 30.6959 308° West  Level Estimated
12:39AM 39.9575 30.5984 308° West  Level Estimated
12:40AM 40.0150 30.5007 308° West  Level Estimated
12:41AM 40.0725 30.4028 308° West  Level Estimated
12:42AM 40.1299 30.3048 307° West  Level Estimated
12:43AM 40.1872 30.2067 307° West  Level Estimated
12:44AM 40.2444 30.1083 307° West  Level Estimated
12:45AM 40.3015 30.0098 307° West  Level Estimated
12:46AM 40.3586 29.9112 307° West  Level Estimated
12:47AM 40.4155 29.8123 307° West  Level Estimated
12:48AM 40.4724 29.7134 307° West  Level Estimated
12:49AM 40.5292 29.6142 307° West  Level Estimated
12:50AM 40.5859 29.5149 307° West  Level Estimated
12:51AM 40.6425 29.4153 307° West  Level Estimated
12:52AM 40.6991 29.3157 307° West  Level Estimated
12:53AM 40.7555 29.2158 307° West  Level Estimated
12:54AM 40.8119 29.1158 307° West  Level Estimated
12:55AM 40.8681 29.0156 307° West  Level Estimated
12:56AM 40.9243 28.9153 307° West  Level Estimated
12:57AM 40.9769 28.8211 306° West  Level Estimated
12:58AM 40.9769 28.8211 21° North  Level Estimated
12:59AM 40.9769 28.8211 21° North  Level Estimated
01:00AM 40.9769 28.8211 21° North  Level Estimated
01:01AM 40.9769 28.8211 21° North  Level Estimated
01:02AM 40.9769 28.8211 21° North  Level Estimated
01:03AM 40.9769 28.8211 21° North  Level Estimated
01:04AM 40.9769 28.8211 21° North  Level Estimated
01:05AM 40.9769 28.8211 21° North  Level Estimated
01:06AM 40.9769 28.8211 21° North  Level Estimated
01:07AM 40.9769 28.8211 21° North  Level Estimated
01:08AM 40.9769 28.8211 21° North  Level Estimated
01:09AM 40.9769 28.8211 21° North  Level Estimated
01:10AM 40.9769 28.8211 21° North  Level Estimated
01:11AM 40.9769 28.8211 21° North  Level Estimated
01:12AM 40.9769 28.8211 21° North  Level Estimated
01:13AM 40.9769 28.8211 21° North  Level Estimated